메인 페이지
METAR-TAF:

METAR-TAF

공항 :

셰레메티예보 국제공항

모스크바 Sheremetyevo, 러시아

위도: 55-58N, 경도: 037-25E, 고도: 190m

현재 날씨관측

예보는 40분 전, 00:30시(UTC)에 발표되었습니다.
무풍
온도 16°C
습도 94%
기압 1014 hPa
시정 10km 이상
고도 4500ft 상공 구름 많음, 적란운.

METAR: UUEE 150030Z 00000MPS 9999 BKN045CB 16/15 Q1014 R24L/290051 NOSIG

시각: 04:10 (01:10 UTC)

예보

예보는 2 시간 11분 전, 22:59시(UTC)에 발표되었습니다.
예보 대상 시간: 15일 00시부터 15일 24시까지 (UTC)
4kt
시정 10km 이상
고도 3000ft 상공 구름 보통
일시적
15일 00시부터 15일 06시까지 (UTC)
14kt
전환 중
15일 06시부터 15일 08시까지 (UTC)
남남서16kt, 순간 최대 풍속 25kt
일시적
15일 09시부터 15일 19시까지 (UTC)
여러 방향의 바람 33kt
시정: 3100m
고도 1100ft 상공 구름 보통
고도 3000ft 상공 구름 많음, 적란운.
뇌우, 약한비
전환 중
15일 20시부터 15일 21시까지 (UTC)
서남서6kt

TAF: UUEE 142259Z 1500/1524 18002MPS 9999 SCT030 TX28/1512Z TN15/1502Z TEMPO 1500/1506 18007MPS BECMG 1506/1508 20008G13MPS TEMPO 1509/1519 VRB17MPS 3100 -TSRA SCT011 BKN030CB BECMG 1520/1521 25003MPS

4,000개 이상의 공항 관측 자료 및 예보 (METAR 및 TAF 보고).

지도상에서 검색 가능한 기상관측소가 노란 점과 빨간 점으로 표시되어 있습니다.

기상관측소 명을 보려면 표시 위로 마우스를 이동하세요.

날씨 관측과 예보를 보려면 클릭하세요.

지도 변경 : 확대하려면 엑스 표시가 있는 녹색 버튼, 축소하려면 빼기 표시가 있는 녹색 버튼, 다음 페이지의 지도를 보려면 녹색 화살표를 클릭하세요.


METAR-TAF: